ACG01 YPPH-YPKG
Flight info
| Callsign | ACG01 |
|---|---|
| Flight time | 0h 57m |
| Altitude | 25000 |
| Route | PH Y31 LAKIR Y69 BOSLI Y67 KG |
| Aircraft | A321/M-SDE3FGHIRWY/LB1 |
Departure
| Time | 2026-05-05 04:27 |
|---|---|
| Airport | Perth International Airport (YPPH) |
Arrival
| Time | 2026-05-05 05:25 |
|---|---|
| Airport | Kalgoorlie Boulder Airport (YPKG) |
| Time | Latitude | Longitude | Altitude | Speed | Heading |
|---|---|---|---|---|---|
| 2026-05-05 04:10 | -31.93916 | 115.95769 | 82 ft | 0 kts | 329° |
| 2026-05-05 04:21 | -31.93905 | 115.95760 | 82 ft | 7 kts | 317° |
| 2026-05-05 04:21 | -31.93897 | 115.95745 | 82 ft | 5 kts | 288° |
| 2026-05-05 04:21 | -31.93903 | 115.95711 | 82 ft | 0 kts | 232° |
| 2026-05-05 04:22 | -31.93927 | 115.95681 | 82 ft | 19 kts | 229° |
| 2026-05-05 04:22 | -31.94020 | 115.95697 | 82 ft | 0 kts | 128° |
| 2026-05-05 04:23 | -31.94021 | 115.95698 | 82 ft | 2 kts | 127° |
| 2026-05-05 04:23 | -31.94007 | 115.95810 | 82 ft | 25 kts | 68° |
| 2026-05-05 04:23 | -31.94033 | 115.95899 | 82 ft | 22 kts | 140° |
| 2026-05-05 04:23 | -31.94198 | 115.96012 | 82 ft | 30 kts | 152° |
| 2026-05-05 04:24 | -31.94387 | 115.96133 | 82 ft | 28 kts | 158° |
| 2026-05-05 04:24 | -31.94573 | 115.96122 | 82 ft | 29 kts | 194° |
| 2026-05-05 04:24 | -31.94768 | 115.96042 | 82 ft | 29 kts | 197° |
| 2026-05-05 04:25 | -31.95202 | 115.95934 | 82 ft | 33 kts | 196° |
| 2026-05-05 04:25 | -31.95418 | 115.95864 | 82 ft | 33 kts | 195° |
| 2026-05-05 04:25 | -31.95638 | 115.95797 | 82 ft | 33 kts | 194° |
| 2026-05-05 04:25 | -31.95816 | 115.95780 | 82 ft | 15 kts | 145° |
| 2026-05-05 04:26 | -31.95865 | 115.95869 | 82 ft | 0 kts | 111° |
| 2026-05-05 04:26 | -31.95865 | 115.95870 | 82 ft | 0 kts | 111° |
| 2026-05-05 04:26 | -31.95857 | 115.95992 | 82 ft | 11 kts | 34° |
| 2026-05-05 04:27 | -31.95498 | 115.96089 | 82 ft | 98 kts | 9° |
| 2026-05-05 04:27 | -31.94571 | 115.96306 | 344 ft | 162 kts | 14° |
| 2026-05-05 04:27 | -31.93416 | 115.96657 | 1589 ft | 177 kts | 17° |
| 2026-05-05 04:27 | -31.92156 | 115.96828 | 2467 ft | 202 kts | 355° |
| 2026-05-05 04:28 | -31.90666 | 115.96167 | 2765 ft | 255 kts | 327° |
| 2026-05-05 04:28 | -31.89498 | 115.94600 | 4051 ft | 257 kts | 302° |
| 2026-05-05 04:28 | -31.88935 | 115.92574 | 5252 ft | 265 kts | 277° |
| 2026-05-05 04:28 | -31.89124 | 115.90418 | 6468 ft | 269 kts | 253° |
| 2026-05-05 04:29 | -31.90045 | 115.88483 | 7575 ft | 275 kts | 229° |
| 2026-05-05 04:29 | -31.91553 | 115.87131 | 8691 ft | 279 kts | 206° |
| 2026-05-05 04:29 | -31.93437 | 115.86568 | 9818 ft | 282 kts | 182° |
| 2026-05-05 04:29 | -31.95363 | 115.86935 | 10997 ft | 282 kts | 159° |
| 2026-05-05 04:30 | -31.97022 | 115.88168 | 12039 ft | 285 kts | 136° |
| 2026-05-05 04:30 | -31.98149 | 115.90097 | 12995 ft | 292 kts | 115° |
| 2026-05-05 04:30 | -31.98573 | 115.92472 | 13882 ft | 301 kts | 93° |
| 2026-05-05 04:30 | -31.98370 | 115.94917 | 14753 ft | 309 kts | 76° |
| 2026-05-05 04:31 | -31.97679 | 115.97340 | 15663 ft | 313 kts | 71° |
| 2026-05-05 04:31 | -31.96925 | 115.99762 | 16530 ft | 317 kts | 70° |
| 2026-05-05 04:31 | -31.96143 | 116.02212 | 17324 ft | 323 kts | 70° |
| 2026-05-05 04:31 | -31.95332 | 116.04710 | 18122 ft | 327 kts | 69° |
| 2026-05-05 04:32 | -31.94508 | 116.07224 | 18913 ft | 331 kts | 69° |
| 2026-05-05 04:32 | -31.93668 | 116.09771 | 19678 ft | 335 kts | 69° |
| 2026-05-05 04:32 | -31.92825 | 116.12315 | 20379 ft | 340 kts | 69° |
| 2026-05-05 04:32 | -31.91955 | 116.14932 | 21123 ft | 344 kts | 69° |
| 2026-05-05 04:33 | -31.91076 | 116.17572 | 21835 ft | 347 kts | 68° |
| 2026-05-05 04:33 | -31.90185 | 116.20238 | 22482 ft | 352 kts | 68° |
| 2026-05-05 04:33 | -31.89589 | 116.22020 | 22944 ft | 354 kts | 68° |
| 2026-05-05 04:33 | -31.88679 | 116.24736 | 23604 ft | 358 kts | 68° |
| 2026-05-05 04:34 | -31.87453 | 116.28391 | 24430 ft | 363 kts | 68° |
| 2026-05-05 04:34 | -31.86823 | 116.30267 | 24849 ft | 366 kts | 68° |
| 2026-05-05 04:34 | -31.85875 | 116.33083 | 25237 ft | 373 kts | 68° |
| 2026-05-05 04:34 | -31.84930 | 116.35888 | 25341 ft | 373 kts | 68° |
| 2026-05-05 04:35 | -31.83972 | 116.38728 | 25368 ft | 372 kts | 68° |
| 2026-05-05 04:35 | -31.82705 | 116.42474 | 25375 ft | 371 kts | 68° |
| 2026-05-05 04:35 | -31.81749 | 116.45296 | 25376 ft | 370 kts | 68° |
| 2026-05-05 04:35 | -31.81116 | 116.47164 | 25371 ft | 371 kts | 68° |
| 2026-05-05 04:36 | -31.80157 | 116.49990 | 25353 ft | 371 kts | 68° |
| 2026-05-05 04:36 | -31.79200 | 116.52809 | 25349 ft | 371 kts | 68° |
| 2026-05-05 04:36 | -31.78242 | 116.55627 | 25348 ft | 371 kts | 68° |
| 2026-05-05 04:36 | -31.77288 | 116.58406 | 25347 ft | 371 kts | 66° |
| 2026-05-05 04:37 | -31.76150 | 116.61123 | 25347 ft | 370 kts | 60° |
| 2026-05-05 04:37 | -31.74749 | 116.63662 | 25347 ft | 370 kts | 53° |
| 2026-05-05 04:37 | -31.73094 | 116.65988 | 25348 ft | 369 kts | 47° |
| 2026-05-05 04:37 | -31.71366 | 116.68182 | 25348 ft | 369 kts | 46° |
| 2026-05-05 04:38 | -31.69608 | 116.70389 | 25347 ft | 369 kts | 46° |
| 2026-05-05 04:38 | -31.67845 | 116.72590 | 25347 ft | 369 kts | 46° |
| 2026-05-05 04:38 | -31.66079 | 116.74786 | 25347 ft | 370 kts | 45° |
| 2026-05-05 04:38 | -31.64308 | 116.76982 | 25345 ft | 369 kts | 45° |
| 2026-05-05 04:39 | -31.62540 | 116.79172 | 25345 ft | 370 kts | 45° |
| 2026-05-05 04:39 | -31.60792 | 116.81332 | 25344 ft | 370 kts | 45° |
| 2026-05-05 04:39 | -31.59018 | 116.83522 | 25344 ft | 370 kts | 45° |
| 2026-05-05 04:39 | -31.57245 | 116.85708 | 25344 ft | 370 kts | 45° |
| 2026-05-05 04:40 | -31.55482 | 116.87917 | 25343 ft | 370 kts | 48° |
| 2026-05-05 04:40 | -31.53931 | 116.90325 | 25342 ft | 371 kts | 56° |
| 2026-05-05 04:40 | -31.52668 | 116.92965 | 25346 ft | 371 kts | 62° |
| 2026-05-05 04:40 | -31.51485 | 116.95658 | 25344 ft | 371 kts | 62° |
| 2026-05-05 04:41 | -31.50328 | 116.98319 | 25343 ft | 371 kts | 63° |
| 2026-05-05 04:41 | -31.49161 | 117.01018 | 25343 ft | 371 kts | 63° |
| 2026-05-05 04:41 | -31.47995 | 117.03725 | 25343 ft | 372 kts | 63° |
| 2026-05-05 04:41 | -31.46830 | 117.06437 | 25343 ft | 372 kts | 63° |
| 2026-05-05 04:42 | -31.45668 | 117.09147 | 25343 ft | 372 kts | 63° |
| 2026-05-05 04:42 | -31.44508 | 117.11854 | 25342 ft | 372 kts | 63° |
| 2026-05-05 04:42 | -31.43345 | 117.14566 | 25342 ft | 372 kts | 63° |
| 2026-05-05 04:42 | -31.42198 | 117.17245 | 25342 ft | 372 kts | 63° |
| 2026-05-05 04:43 | -31.41036 | 117.19955 | 25342 ft | 372 kts | 63° |
| 2026-05-05 04:43 | -31.39875 | 117.22662 | 25342 ft | 372 kts | 63° |
| 2026-05-05 04:43 | -31.38713 | 117.25373 | 25342 ft | 372 kts | 63° |
| 2026-05-05 04:43 | -31.37552 | 117.28077 | 25341 ft | 372 kts | 63° |
| 2026-05-05 04:44 | -31.36390 | 117.30783 | 25341 ft | 372 kts | 63° |
| 2026-05-05 04:44 | -31.35223 | 117.33498 | 25341 ft | 372 kts | 63° |
| 2026-05-05 04:44 | -31.34060 | 117.36204 | 25341 ft | 373 kts | 63° |
| 2026-05-05 04:44 | -31.32908 | 117.38880 | 25341 ft | 373 kts | 63° |
| 2026-05-05 04:45 | -31.31740 | 117.41593 | 25341 ft | 373 kts | 63° |
| 2026-05-05 04:45 | -31.30572 | 117.44304 | 25340 ft | 373 kts | 63° |
| 2026-05-05 04:45 | -31.29400 | 117.47020 | 25341 ft | 373 kts | 63° |
| 2026-05-05 04:45 | -31.28231 | 117.49730 | 25340 ft | 373 kts | 63° |
| 2026-05-05 04:46 | -31.27062 | 117.52446 | 25340 ft | 373 kts | 64° |
| 2026-05-05 04:46 | -31.25945 | 117.55147 | 25340 ft | 373 kts | 64° |
| 2026-05-05 04:46 | -31.24824 | 117.57887 | 25340 ft | 373 kts | 64° |
| 2026-05-05 04:46 | -31.23703 | 117.60630 | 25340 ft | 373 kts | 64° |
| 2026-05-05 04:47 | -31.22585 | 117.63370 | 25340 ft | 373 kts | 64° |
| 2026-05-05 04:47 | -31.21467 | 117.66114 | 25340 ft | 373 kts | 64° |
| 2026-05-05 04:47 | -31.20351 | 117.68853 | 25340 ft | 372 kts | 64° |
| 2026-05-05 04:47 | -31.19254 | 117.71544 | 25340 ft | 372 kts | 64° |
| 2026-05-05 04:48 | -31.18138 | 117.74282 | 25340 ft | 372 kts | 64° |
| 2026-05-05 04:48 | -31.17025 | 117.77011 | 25340 ft | 372 kts | 64° |
| 2026-05-05 04:48 | -31.15910 | 117.79744 | 25340 ft | 372 kts | 64° |
| 2026-05-05 04:48 | -31.14797 | 117.82470 | 25340 ft | 372 kts | 64° |
| 2026-05-05 04:49 | -31.13680 | 117.85205 | 25340 ft | 372 kts | 64° |
| 2026-05-05 04:49 | -31.12566 | 117.87929 | 25340 ft | 372 kts | 64° |
| 2026-05-05 04:49 | -31.11451 | 117.90655 | 25340 ft | 372 kts | 64° |
| 2026-05-05 04:49 | -31.10347 | 117.93352 | 25340 ft | 372 kts | 64° |
| 2026-05-05 04:50 | -31.09231 | 117.96074 | 25340 ft | 372 kts | 64° |
| 2026-05-05 04:50 | -31.08110 | 117.98808 | 25340 ft | 372 kts | 64° |
| 2026-05-05 04:50 | -31.06993 | 118.01532 | 25341 ft | 373 kts | 64° |
| 2026-05-05 04:50 | -31.05870 | 118.04265 | 25341 ft | 373 kts | 64° |
| 2026-05-05 04:51 | -31.04760 | 118.06966 | 25341 ft | 373 kts | 64° |
| 2026-05-05 04:51 | -31.03637 | 118.09697 | 25341 ft | 373 kts | 64° |
| 2026-05-05 04:51 | -31.02514 | 118.12427 | 25341 ft | 373 kts | 64° |
| 2026-05-05 04:51 | -31.01392 | 118.15154 | 25341 ft | 373 kts | 64° |
| 2026-05-05 04:52 | -31.00268 | 118.17882 | 25341 ft | 373 kts | 64° |
| 2026-05-05 04:52 | -30.99142 | 118.20611 | 25341 ft | 372 kts | 64° |
| 2026-05-05 04:52 | -30.98038 | 118.23285 | 25341 ft | 370 kts | 64° |
| 2026-05-05 04:52 | -30.96920 | 118.25992 | 25342 ft | 369 kts | 64° |
| 2026-05-05 04:53 | -30.95802 | 118.28696 | 25342 ft | 369 kts | 64° |
| 2026-05-05 04:53 | -30.94686 | 118.31394 | 25342 ft | 369 kts | 64° |
| 2026-05-05 04:53 | -30.93571 | 118.34089 | 25342 ft | 369 kts | 64° |
| 2026-05-05 04:53 | -30.92450 | 118.36793 | 25343 ft | 369 kts | 64° |
| 2026-05-05 04:54 | -30.91348 | 118.39452 | 25343 ft | 369 kts | 64° |
| 2026-05-05 04:54 | -30.90229 | 118.42148 | 25343 ft | 369 kts | 64° |
| 2026-05-05 04:54 | -30.89108 | 118.44848 | 25343 ft | 369 kts | 64° |
| 2026-05-05 04:54 | -30.87990 | 118.47540 | 25344 ft | 369 kts | 64° |
| 2026-05-05 04:55 | -30.86867 | 118.50240 | 25344 ft | 369 kts | 64° |
| 2026-05-05 04:55 | -30.85745 | 118.52936 | 25344 ft | 369 kts | 64° |
| 2026-05-05 04:55 | -30.84635 | 118.55603 | 25344 ft | 369 kts | 64° |
| 2026-05-05 04:55 | -30.83515 | 118.58291 | 25345 ft | 369 kts | 64° |
| 2026-05-05 04:56 | -30.82393 | 118.60981 | 25345 ft | 369 kts | 64° |
| 2026-05-05 04:56 | -30.81270 | 118.63673 | 25345 ft | 369 kts | 64° |
| 2026-05-05 04:56 | -30.80144 | 118.66368 | 25346 ft | 369 kts | 64° |
| 2026-05-05 04:56 | -30.79019 | 118.69061 | 25345 ft | 369 kts | 64° |
| 2026-05-05 04:57 | -30.77897 | 118.71744 | 25342 ft | 369 kts | 64° |
| 2026-05-05 04:57 | -30.76773 | 118.74429 | 25342 ft | 369 kts | 64° |
| 2026-05-05 04:57 | -30.75663 | 118.77080 | 25342 ft | 369 kts | 64° |
| 2026-05-05 04:57 | -30.74537 | 118.79766 | 25342 ft | 369 kts | 64° |
| 2026-05-05 04:58 | -30.73419 | 118.82462 | 25342 ft | 369 kts | 66° |
| 2026-05-05 04:58 | -30.72495 | 118.85251 | 25342 ft | 369 kts | 73° |
| 2026-05-05 04:58 | -30.71890 | 118.88148 | 25343 ft | 368 kts | 81° |
| 2026-05-05 04:58 | -30.71615 | 118.91069 | 25346 ft | 368 kts | 86° |
| 2026-05-05 04:59 | -30.71424 | 118.94044 | 25345 ft | 368 kts | 87° |
| 2026-05-05 04:59 | -30.71264 | 118.97024 | 25345 ft | 368 kts | 88° |
| 2026-05-05 04:59 | -30.71122 | 118.99952 | 25345 ft | 368 kts | 88° |
| 2026-05-05 04:59 | -30.70984 | 119.02927 | 25345 ft | 367 kts | 88° |
| 2026-05-05 05:00 | -30.70850 | 119.05893 | 25346 ft | 367 kts | 88° |
| 2026-05-05 05:00 | -30.70716 | 119.08873 | 25347 ft | 367 kts | 88° |
| 2026-05-05 05:00 | -30.70585 | 119.11809 | 25347 ft | 367 kts | 88° |
| 2026-05-05 05:00 | -30.70452 | 119.14778 | 25348 ft | 367 kts | 88° |
| 2026-05-05 05:01 | -30.70320 | 119.17741 | 25348 ft | 367 kts | 88° |
| 2026-05-05 05:01 | -30.70187 | 119.20710 | 25348 ft | 368 kts | 88° |
| 2026-05-05 05:01 | -30.70053 | 119.23679 | 25349 ft | 367 kts | 88° |
| 2026-05-05 05:01 | -30.69919 | 119.26649 | 25350 ft | 367 kts | 88° |
| 2026-05-05 05:02 | -30.69786 | 119.29584 | 25350 ft | 367 kts | 88° |
| 2026-05-05 05:02 | -30.69651 | 119.32552 | 25351 ft | 367 kts | 88° |
| 2026-05-05 05:02 | -30.69515 | 119.35514 | 25351 ft | 367 kts | 88° |
| 2026-05-05 05:02 | -30.69378 | 119.38491 | 25352 ft | 367 kts | 88° |
| 2026-05-05 05:03 | -30.69243 | 119.41427 | 25353 ft | 367 kts | 88° |
| 2026-05-05 05:03 | -30.69105 | 119.44391 | 25353 ft | 367 kts | 88° |
| 2026-05-05 05:03 | -30.68967 | 119.47348 | 25354 ft | 367 kts | 88° |
| 2026-05-05 05:03 | -30.68827 | 119.50316 | 25354 ft | 367 kts | 88° |
| 2026-05-05 05:04 | -30.68687 | 119.53285 | 25355 ft | 367 kts | 88° |
| 2026-05-05 05:04 | -30.68580 | 119.55540 | 25355 ft | 367 kts | 88° |
| 2026-05-05 05:04 | -30.68441 | 119.58471 | 25347 ft | 368 kts | 88° |
| 2026-05-05 05:04 | -30.68295 | 119.61534 | 25114 ft | 386 kts | 88° |
| 2026-05-05 05:05 | -30.68146 | 119.64669 | 24864 ft | 389 kts | 88° |
| 2026-05-05 05:05 | -30.67995 | 119.67794 | 24613 ft | 387 kts | 88° |
| 2026-05-05 05:05 | -30.67843 | 119.70917 | 24362 ft | 385 kts | 88° |
| 2026-05-05 05:05 | -30.67692 | 119.74016 | 24112 ft | 383 kts | 88° |
| 2026-05-05 05:06 | -30.67542 | 119.77067 | 23864 ft | 381 kts | 88° |
| 2026-05-05 05:06 | -30.67390 | 119.80131 | 23613 ft | 379 kts | 88° |
| 2026-05-05 05:06 | -30.67239 | 119.83189 | 23362 ft | 378 kts | 88° |
| 2026-05-05 05:06 | -30.67087 | 119.86236 | 23111 ft | 376 kts | 88° |
| 2026-05-05 05:07 | -30.66935 | 119.89262 | 22860 ft | 374 kts | 88° |
| 2026-05-05 05:07 | -30.66783 | 119.92270 | 22610 ft | 373 kts | 88° |
| 2026-05-05 05:07 | -30.66631 | 119.95277 | 22359 ft | 371 kts | 88° |
| 2026-05-05 05:07 | -30.66479 | 119.98263 | 22108 ft | 369 kts | 88° |
| 2026-05-05 05:08 | -30.66327 | 120.01232 | 21858 ft | 368 kts | 88° |
| 2026-05-05 05:08 | -30.66176 | 120.04165 | 21610 ft | 366 kts | 89° |
| 2026-05-05 05:08 | -30.66024 | 120.07124 | 21358 ft | 365 kts | 89° |
| 2026-05-05 05:08 | -30.65872 | 120.10065 | 21107 ft | 363 kts | 89° |
| 2026-05-05 05:09 | -30.65719 | 120.13003 | 20856 ft | 362 kts | 89° |
| 2026-05-05 05:09 | -30.65569 | 120.15877 | 20608 ft | 360 kts | 89° |
| 2026-05-05 05:09 | -30.65417 | 120.18773 | 20358 ft | 359 kts | 89° |
| 2026-05-05 05:09 | -30.65265 | 120.21662 | 20107 ft | 357 kts | 89° |
| 2026-05-05 05:10 | -30.65112 | 120.24544 | 19855 ft | 355 kts | 89° |
| 2026-05-05 05:10 | -30.64960 | 120.27407 | 19605 ft | 354 kts | 89° |
| 2026-05-05 05:10 | -30.64808 | 120.30258 | 19354 ft | 352 kts | 89° |
| 2026-05-05 05:10 | -30.64658 | 120.33035 | 19151 ft | 343 kts | 89° |
| 2026-05-05 05:11 | -30.64510 | 120.35766 | 18802 ft | 335 kts | 89° |
| 2026-05-05 05:11 | -30.64364 | 120.38447 | 18429 ft | 330 kts | 89° |
| 2026-05-05 05:11 | -30.64220 | 120.41090 | 18064 ft | 325 kts | 89° |
| 2026-05-05 05:11 | -30.64077 | 120.43713 | 17703 ft | 324 kts | 89° |
| 2026-05-05 05:12 | -30.63934 | 120.46319 | 17341 ft | 322 kts | 89° |
| 2026-05-05 05:12 | -30.63794 | 120.48873 | 16988 ft | 319 kts | 89° |
| 2026-05-05 05:12 | -30.63653 | 120.51443 | 16627 ft | 317 kts | 89° |
| 2026-05-05 05:12 | -30.63512 | 120.53992 | 16261 ft | 315 kts | 89° |
| 2026-05-05 05:13 | -30.63371 | 120.56522 | 15902 ft | 313 kts | 89° |
| 2026-05-05 05:13 | -30.63231 | 120.59044 | 15550 ft | 311 kts | 89° |
| 2026-05-05 05:13 | -30.63092 | 120.61537 | 15200 ft | 308 kts | 89° |
| 2026-05-05 05:13 | -30.62954 | 120.63985 | 14858 ft | 306 kts | 89° |
| 2026-05-05 05:14 | -30.62816 | 120.66442 | 14515 ft | 304 kts | 89° |
| 2026-05-05 05:14 | -30.62678 | 120.68891 | 14170 ft | 302 kts | 89° |
| 2026-05-05 05:14 | -30.62540 | 120.71320 | 13827 ft | 300 kts | 89° |
| 2026-05-05 05:14 | -30.62404 | 120.73727 | 13487 ft | 298 kts | 89° |
| 2026-05-05 05:15 | -30.62267 | 120.76122 | 13145 ft | 296 kts | 89° |
| 2026-05-05 05:15 | -30.62131 | 120.78507 | 12804 ft | 294 kts | 89° |
| 2026-05-05 05:15 | -30.61995 | 120.80863 | 12463 ft | 291 kts | 89° |
| 2026-05-05 05:15 | -30.61860 | 120.83211 | 12124 ft | 290 kts | 89° |
| 2026-05-05 05:16 | -30.61728 | 120.85509 | 11790 ft | 289 kts | 89° |
| 2026-05-05 05:16 | -30.61598 | 120.87829 | 11449 ft | 287 kts | 89° |
| 2026-05-05 05:16 | -30.61641 | 120.90135 | 11079 ft | 284 kts | 97° |
| 2026-05-05 05:16 | -30.62021 | 120.92384 | 10627 ft | 282 kts | 108° |
| 2026-05-05 05:17 | -30.62651 | 120.94497 | 10414 ft | 272 kts | 110° |
| 2026-05-05 05:17 | -30.63272 | 120.96521 | 10139 ft | 266 kts | 111° |
| 2026-05-05 05:17 | -30.63908 | 120.98549 | 9571 ft | 272 kts | 111° |
| 2026-05-05 05:17 | -30.64567 | 121.00618 | 9147 ft | 272 kts | 111° |
| 2026-05-05 05:18 | -30.65222 | 121.02658 | 8830 ft | 267 kts | 111° |
| 2026-05-05 05:18 | -30.65869 | 121.04665 | 8516 ft | 263 kts | 111° |
| 2026-05-05 05:18 | -30.66510 | 121.06645 | 8203 ft | 260 kts | 111° |
| 2026-05-05 05:18 | -30.67143 | 121.08600 | 7890 ft | 257 kts | 111° |
| 2026-05-05 05:19 | -30.67762 | 121.10509 | 7583 ft | 254 kts | 110° |
| 2026-05-05 05:19 | -30.68381 | 121.12418 | 7273 ft | 251 kts | 110° |
| 2026-05-05 05:19 | -30.68999 | 121.14322 | 6964 ft | 251 kts | 110° |
| 2026-05-05 05:19 | -30.69613 | 121.16214 | 6651 ft | 249 kts | 110° |
| 2026-05-05 05:20 | -30.70018 | 121.17465 | 6442 ft | 248 kts | 110° |
| 2026-05-05 05:20 | -30.70624 | 121.19333 | 6120 ft | 247 kts | 110° |
| 2026-05-05 05:20 | -30.71423 | 121.21801 | 5700 ft | 245 kts | 110° |
| 2026-05-05 05:20 | -30.72023 | 121.23656 | 5183 ft | 247 kts | 110° |
| 2026-05-05 05:21 | -30.72438 | 121.24937 | 4587 ft | 255 kts | 110° |
| 2026-05-05 05:21 | -30.73063 | 121.26867 | 4051 ft | 252 kts | 110° |
| 2026-05-05 05:21 | -30.73873 | 121.29373 | 3446 ft | 244 kts | 110° |
| 2026-05-05 05:21 | -30.74262 | 121.30575 | 3272 ft | 235 kts | 109° |
| 2026-05-05 05:22 | -30.74828 | 121.32328 | 3134 ft | 227 kts | 109° |
| 2026-05-05 05:22 | -30.75536 | 121.34525 | 2929 ft | 206 kts | 109° |
| 2026-05-05 05:22 | -30.75857 | 121.35519 | 2789 ft | 190 kts | 109° |
| 2026-05-05 05:22 | -30.76292 | 121.36870 | 2377 ft | 171 kts | 110° |
| 2026-05-05 05:23 | -30.76659 | 121.38097 | 2065 ft | 149 kts | 106° |
| 2026-05-05 05:23 | -30.76916 | 121.39208 | 1934 ft | 139 kts | 106° |
| 2026-05-05 05:23 | -30.77171 | 121.40268 | 1783 ft | 133 kts | 105° |
| 2026-05-05 05:23 | -30.77543 | 121.41629 | 1692 ft | 133 kts | 110° |
| 2026-05-05 05:24 | -30.77763 | 121.42313 | 1623 ft | 134 kts | 110° |
| 2026-05-05 05:24 | -30.78082 | 121.43307 | 1500 ft | 132 kts | 110° |
| 2026-05-05 05:24 | -30.78407 | 121.44310 | 1400 ft | 133 kts | 110° |
| 2026-05-05 05:24 | -30.78744 | 121.45306 | 1282 ft | 133 kts | 112° |
| 2026-05-05 05:25 | -30.79073 | 121.46280 | 1219 ft | 121 kts | 111° |
| 2026-05-05 05:25 | -30.79278 | 121.46893 | 1218 ft | 38 kts | 111° |
| 2026-05-05 05:25 | -30.79358 | 121.47133 | 1218 ft | 37 kts | 111° |
| 2026-05-05 05:25 | -30.79413 | 121.47387 | 1218 ft | 29 kts | 87° |
| 2026-05-05 05:26 | -30.79464 | 121.47431 | 1218 ft | 10 kts | 254° |
| 2026-05-05 05:26 | -30.79434 | 121.47314 | 1218 ft | 21 kts | 290° |
| 2026-05-05 05:26 | -30.79364 | 121.47126 | 1218 ft | 28 kts | 294° |
| 2026-05-05 05:26 | -30.79281 | 121.46907 | 1218 ft | 32 kts | 294° |
| 2026-05-05 05:27 | -30.79193 | 121.46645 | 1218 ft | 34 kts | 288° |
| 2026-05-05 05:27 | -30.79120 | 121.46393 | 1218 ft | 33 kts | 288° |
| 2026-05-05 05:27 | -30.78887 | 121.46031 | 1218 ft | 29 kts | 12° |
| 2026-05-05 05:28 | -30.78731 | 121.46047 | 1218 ft | 12 kts | 338° |
| 2026-05-05 05:28 | -30.78678 | 121.45943 | 1218 ft | 22 kts | 292° |
| 2026-05-05 05:28 | -30.78638 | 121.45908 | 1218 ft | 0 kts | 0° |